sensor_id;sensor_type;location;lat;lon;timestamp;temperature;humidity
16674;DHT22;8450;52.654;10.326;2024-02-28T00:01:52;4.00;99.90
16674;DHT22;8450;52.654;10.326;2024-02-28T00:04:18;4.00;99.90
16674;DHT22;8450;52.654;10.326;2024-02-28T00:06:43;3.90;99.90
16674;DHT22;8450;52.654;10.326;2024-02-28T00:09:12;3.90;99.90
16674;DHT22;8450;52.654;10.326;2024-02-28T00:11:45;3.90;99.90
16674;DHT22;8450;52.654;10.326;2024-02-28T00:17:24;3.80;99.90
16674;DHT22;8450;52.654;10.326;2024-02-28T00:19:49;3.90;99.90
16674;DHT22;8450;52.654;10.326;2024-02-28T00:22:15;3.90;99.90
16674;DHT22;8450;52.654;10.326;2024-02-28T00:24:40;3.90;99.90
16674;DHT22;8450;52.654;10.326;2024-02-28T00:30:52;3.90;99.90
16674;DHT22;8450;52.654;10.326;2024-02-28T00:33:18;3.80;99.90
16674;DHT22;8450;52.654;10.326;2024-02-28T00:35:43;3.90;99.90
16674;DHT22;8450;52.654;10.326;2024-02-28T00:38:09;3.80;99.90
16674;DHT22;8450;52.654;10.326;2024-02-28T00:40:34;3.70;99.90
16674;DHT22;8450;52.654;10.326;2024-02-28T00:43:00;3.70;99.90
16674;DHT22;8450;52.654;10.326;2024-02-28T00:45:25;3.70;99.90
16674;DHT22;8450;52.654;10.326;2024-02-28T00:47:51;3.70;99.90
16674;DHT22;8450;52.654;10.326;2024-02-28T00:50:17;3.70;99.90
16674;DHT22;8450;52.654;10.326;2024-02-28T00:52:42;3.60;99.90
16674;DHT22;8450;52.654;10.326;2024-02-28T00:55:08;3.60;99.90
16674;DHT22;8450;52.654;10.326;2024-02-28T00:57:33;3.60;99.90
16674;DHT22;8450;52.654;10.326;2024-02-28T00:59:59;3.60;99.90
16674;DHT22;8450;52.654;10.326;2024-02-28T01:02:24;3.50;99.90
16674;DHT22;8450;52.654;10.326;2024-02-28T01:04:50;3.50;99.90
16674;DHT22;8450;52.654;10.326;2024-02-28T01:07:16;3.50;99.90
16674;DHT22;8450;52.654;10.326;2024-02-28T01:09:41;3.50;99.90
16674;DHT22;8450;52.654;10.326;2024-02-28T01:12:07;3.60;99.90
16674;DHT22;8450;52.654;10.326;2024-02-28T01:14:33;3.60;99.90
16674;DHT22;8450;52.654;10.326;2024-02-28T01:16:59;3.50;99.90
16674;DHT22;8450;52.654;10.326;2024-02-28T01:19:24;3.30;99.90
16674;DHT22;8450;52.654;10.326;2024-02-28T01:21:50;3.30;99.90
16674;DHT22;8450;52.654;10.326;2024-02-28T01:24:16;3.40;99.90
16674;DHT22;8450;52.654;10.326;2024-02-28T01:26:42;3.40;99.90
16674;DHT22;8450;52.654;10.326;2024-02-28T01:29:07;3.40;99.90
16674;DHT22;8450;52.654;10.326;2024-02-28T01:31:33;3.50;99.90
16674;DHT22;8450;52.654;10.326;2024-02-28T01:33:59;3.50;99.90
16674;DHT22;8450;52.654;10.326;2024-02-28T01:36:24;3.40;99.90
16674;DHT22;8450;52.654;10.326;2024-02-28T01:38:51;3.40;99.90
16674;DHT22;8450;52.654;10.326;2024-02-28T01:41:17;3.30;99.90
16674;DHT22;8450;52.654;10.326;2024-02-28T01:43:42;3.30;99.90
16674;DHT22;8450;52.654;10.326;2024-02-28T01:48:46;3.30;99.90
16674;DHT22;8450;52.654;10.326;2024-02-28T01:51:12;3.20;99.90
16674;DHT22;8450;52.654;10.326;2024-02-28T01:53:38;3.30;99.90
16674;DHT22;8450;52.654;10.326;2024-02-28T01:56:04;3.30;99.90
16674;DHT22;8450;52.654;10.326;2024-02-28T01:58:29;3.30;99.90
16674;DHT22;8450;52.654;10.326;2024-02-28T02:00:56;3.10;99.90
16674;DHT22;8450;52.654;10.326;2024-02-28T02:03:21;3.20;99.90
16674;DHT22;8450;52.654;10.326;2024-02-28T02:05:47;3.20;99.90
16674;DHT22;8450;52.654;10.326;2024-02-28T02:08:13;3.00;99.90
16674;DHT22;8450;52.654;10.326;2024-02-28T02:10:39;3.10;99.90
16674;DHT22;8450;52.654;10.326;2024-02-28T02:13:05;3.10;99.90
16674;DHT22;8450;52.654;10.326;2024-02-28T02:15:31;3.10;99.90
16674;DHT22;8450;52.654;10.326;2024-02-28T02:17:56;3.10;99.90
16674;DHT22;8450;52.654;10.326;2024-02-28T02:20:22;3.10;99.90
16674;DHT22;8450;52.654;10.326;2024-02-28T02:22:49;3.20;99.90
16674;DHT22;8450;52.654;10.326;2024-02-28T02:25:14;3.20;99.90
16674;DHT22;8450;52.654;10.326;2024-02-28T02:27:40;3.10;99.90
16674;DHT22;8450;52.654;10.326;2024-02-28T02:30:06;3.10;99.90
16674;DHT22;8450;52.654;10.326;2024-02-28T02:32:31;3.10;99.90
16674;DHT22;8450;52.654;10.326;2024-02-28T02:34:57;3.00;99.90
16674;DHT22;8450;52.654;10.326;2024-02-28T02:37:22;2.90;99.90
16674;DHT22;8450;52.654;10.326;2024-02-28T02:39:48;2.90;99.90
16674;DHT22;8450;52.654;10.326;2024-02-28T02:42:13;3.00;99.90
16674;DHT22;8450;52.654;10.326;2024-02-28T02:44:40;3.00;99.90
16674;DHT22;8450;52.654;10.326;2024-02-28T02:47:05;3.00;99.90
16674;DHT22;8450;52.654;10.326;2024-02-28T02:49:31;3.00;99.90
16674;DHT22;8450;52.654;10.326;2024-02-28T02:51:57;2.90;99.90
16674;DHT22;8450;52.654;10.326;2024-02-28T02:54:22;2.90;99.90
16674;DHT22;8450;52.654;10.326;2024-02-28T02:56:48;2.90;99.90
16674;DHT22;8450;52.654;10.326;2024-02-28T02:59:13;2.90;99.90
16674;DHT22;8450;52.654;10.326;2024-02-28T03:01:39;3.00;99.90
16674;DHT22;8450;52.654;10.326;2024-02-28T03:04:04;2.90;99.90
16674;DHT22;8450;52.654;10.326;2024-02-28T03:06:30;2.70;99.90
16674;DHT22;8450;52.654;10.326;2024-02-28T03:08:57;2.70;99.90
16674;DHT22;8450;52.654;10.326;2024-02-28T03:11:23;2.80;99.90
16674;DHT22;8450;52.654;10.326;2024-02-28T03:13:48;2.70;99.90
16674;DHT22;8450;52.654;10.326;2024-02-28T03:16:14;2.60;99.90
16674;DHT22;8450;52.654;10.326;2024-02-28T03:18:39;2.70;99.90
16674;DHT22;8450;52.654;10.326;2024-02-28T03:21:05;2.70;99.90
16674;DHT22;8450;52.654;10.326;2024-02-28T03:23:31;2.80;99.90
16674;DHT22;8450;52.654;10.326;2024-02-28T03:25:57;2.80;99.90
16674;DHT22;8450;52.654;10.326;2024-02-28T03:28:22;2.80;99.90
16674;DHT22;8450;52.654;10.326;2024-02-28T03:30:48;2.70;99.90
16674;DHT22;8450;52.654;10.326;2024-02-28T03:33:14;2.60;99.90
16674;DHT22;8450;52.654;10.326;2024-02-28T03:35:39;2.60;99.90
16674;DHT22;8450;52.654;10.326;2024-02-28T03:38:05;2.70;99.90
16674;DHT22;8450;52.654;10.326;2024-02-28T03:40:30;2.70;99.90
16674;DHT22;8450;52.654;10.326;2024-02-28T03:42:56;2.70;99.90
16674;DHT22;8450;52.654;10.326;2024-02-28T03:45:22;2.70;99.90
16674;DHT22;8450;52.654;10.326;2024-02-28T03:47:48;2.70;99.90
16674;DHT22;8450;52.654;10.326;2024-02-28T03:50:13;2.70;99.90
16674;DHT22;8450;52.654;10.326;2024-02-28T03:52:39;2.80;99.90
16674;DHT22;8450;52.654;10.326;2024-02-28T03:55:05;2.80;99.90
16674;DHT22;8450;52.654;10.326;2024-02-28T03:57:30;2.80;99.90
16674;DHT22;8450;52.654;10.326;2024-02-28T03:59:56;2.80;99.90
16674;DHT22;8450;52.654;10.326;2024-02-28T04:02:22;2.80;99.90
16674;DHT22;8450;52.654;10.326;2024-02-28T04:04:47;2.80;99.90
16674;DHT22;8450;52.654;10.326;2024-02-28T04:07:13;2.80;99.90
16674;DHT22;8450;52.654;10.326;2024-02-28T04:09:38;2.80;99.90
16674;DHT22;8450;52.654;10.326;2024-02-28T04:12:04;2.80;99.90
16674;DHT22;8450;52.654;10.326;2024-02-28T04:14:30;2.80;99.90
16674;DHT22;8450;52.654;10.326;2024-02-28T04:16:55;2.80;99.90
16674;DHT22;8450;52.654;10.326;2024-02-28T04:19:21;2.70;99.90
16674;DHT22;8450;52.654;10.326;2024-02-28T04:21:46;2.70;99.90
16674;DHT22;8450;52.654;10.326;2024-02-28T04:24:12;2.80;99.90
16674;DHT22;8450;52.654;10.326;2024-02-28T04:26:38;2.70;99.90
16674;DHT22;8450;52.654;10.326;2024-02-28T04:29:03;2.70;99.90
16674;DHT22;8450;52.654;10.326;2024-02-28T04:31:31;2.70;99.90
16674;DHT22;8450;52.654;10.326;2024-02-28T04:33:57;2.70;99.90
16674;DHT22;8450;52.654;10.326;2024-02-28T04:36:22;2.70;99.90
16674;DHT22;8450;52.654;10.326;2024-02-28T04:38:48;2.70;99.90
16674;DHT22;8450;52.654;10.326;2024-02-28T04:41:13;2.70;99.90
16674;DHT22;8450;52.654;10.326;2024-02-28T04:43:40;2.70;99.90
16674;DHT22;8450;52.654;10.326;2024-02-28T04:46:05;2.70;99.90
16674;DHT22;8450;52.654;10.326;2024-02-28T04:48:31;2.70;99.90
16674;DHT22;8450;52.654;10.326;2024-02-28T04:50:57;2.70;99.90
16674;DHT22;8450;52.654;10.326;2024-02-28T04:53:22;2.60;99.90
16674;DHT22;8450;52.654;10.326;2024-02-28T04:55:48;2.60;99.90
16674;DHT22;8450;52.654;10.326;2024-02-28T04:58:13;2.70;99.90
16674;DHT22;8450;52.654;10.326;2024-02-28T05:00:39;2.70;99.90
16674;DHT22;8450;52.654;10.326;2024-02-28T05:03:04;2.70;99.90
16674;DHT22;8450;52.654;10.326;2024-02-28T05:05:30;2.70;99.90
16674;DHT22;8450;52.654;10.326;2024-02-28T05:07:55;2.70;99.90
16674;DHT22;8450;52.654;10.326;2024-02-28T05:10:21;2.70;99.90
16674;DHT22;8450;52.654;10.326;2024-02-28T05:12:46;2.70;99.90
16674;DHT22;8450;52.654;10.326;2024-02-28T05:15:12;2.50;99.90
16674;DHT22;8450;52.654;10.326;2024-02-28T05:17:37;2.60;99.90
16674;DHT22;8450;52.654;10.326;2024-02-28T05:20:03;2.60;99.90
16674;DHT22;8450;52.654;10.326;2024-02-28T05:22:29;2.60;99.90
16674;DHT22;8450;52.654;10.326;2024-02-28T05:24:54;2.60;99.90
16674;DHT22;8450;52.654;10.326;2024-02-28T05:27:20;2.70;99.90
16674;DHT22;8450;52.654;10.326;2024-02-28T05:29:45;2.70;99.90
16674;DHT22;8450;52.654;10.326;2024-02-28T05:32:11;2.80;99.90
16674;DHT22;8450;52.654;10.326;2024-02-28T05:34:37;2.70;99.90
16674;DHT22;8450;52.654;10.326;2024-02-28T05:37:02;2.80;99.90
16674;DHT22;8450;52.654;10.326;2024-02-28T05:39:28;3.00;99.90
16674;DHT22;8450;52.654;10.326;2024-02-28T05:41:56;2.90;99.90
16674;DHT22;8450;52.654;10.326;2024-02-28T05:44:23;2.80;99.90
16674;DHT22;8450;52.654;10.326;2024-02-28T05:46:49;2.80;99.90
16674;DHT22;8450;52.654;10.326;2024-02-28T05:49:15;2.70;99.90
16674;DHT22;8450;52.654;10.326;2024-02-28T05:51:41;2.80;99.90
16674;DHT22;8450;52.654;10.326;2024-02-28T05:54:06;2.70;99.90
16674;DHT22;8450;52.654;10.326;2024-02-28T05:56:32;2.70;99.90
16674;DHT22;8450;52.654;10.326;2024-02-28T05:58:57;2.80;99.90
16674;DHT22;8450;52.654;10.326;2024-02-28T06:01:23;2.90;99.90
16674;DHT22;8450;52.654;10.326;2024-02-28T06:03:49;2.80;99.90
16674;DHT22;8450;52.654;10.326;2024-02-28T06:06:14;2.80;99.90
16674;DHT22;8450;52.654;10.326;2024-02-28T06:08:40;2.70;99.90
16674;DHT22;8450;52.654;10.326;2024-02-28T06:11:07;2.70;99.90
16674;DHT22;8450;52.654;10.326;2024-02-28T06:13:33;2.70;99.90
16674;DHT22;8450;52.654;10.326;2024-02-28T06:15:59;2.70;99.90
16674;DHT22;8450;52.654;10.326;2024-02-28T06:18:26;2.70;99.90
16674;DHT22;8450;52.654;10.326;2024-02-28T06:20:58;2.70;99.90
16674;DHT22;8450;52.654;10.326;2024-02-28T06:23:25;2.70;99.90
16674;DHT22;8450;52.654;10.326;2024-02-28T06:25:50;2.70;99.90
16674;DHT22;8450;52.654;10.326;2024-02-28T06:28:16;2.70;99.90
16674;DHT22;8450;52.654;10.326;2024-02-28T06:30:45;2.70;99.90
16674;DHT22;8450;52.654;10.326;2024-02-28T06:33:13;2.70;99.90
16674;DHT22;8450;52.654;10.326;2024-02-28T06:35:40;2.70;99.90
16674;DHT22;8450;52.654;10.326;2024-02-28T06:38:06;2.60;99.90
16674;DHT22;8450;52.654;10.326;2024-02-28T06:40:32;2.60;99.90
16674;DHT22;8450;52.654;10.326;2024-02-28T06:42:58;2.60;99.90
16674;DHT22;8450;52.654;10.326;2024-02-28T06:45:24;2.60;99.90
16674;DHT22;8450;52.654;10.326;2024-02-28T06:47:49;2.60;99.90
16674;DHT22;8450;52.654;10.326;2024-02-28T06:50:16;2.60;99.90
16674;DHT22;8450;52.654;10.326;2024-02-28T06:52:42;2.60;99.90
16674;DHT22;8450;52.654;10.326;2024-02-28T06:55:08;2.60;99.90
16674;DHT22;8450;52.654;10.326;2024-02-28T06:57:41;2.60;99.90
16674;DHT22;8450;52.654;10.326;2024-02-28T07:00:08;2.60;99.90
16674;DHT22;8450;52.654;10.326;2024-02-28T07:02:35;2.60;99.90
16674;DHT22;8450;52.654;10.326;2024-02-28T07:05:01;2.60;99.90
16674;DHT22;8450;52.654;10.326;2024-02-28T07:07:27;2.60;99.90
16674;DHT22;8450;52.654;10.326;2024-02-28T07:09:52;2.60;99.90
16674;DHT22;8450;52.654;10.326;2024-02-28T07:12:18;2.60;99.90
16674;DHT22;8450;52.654;10.326;2024-02-28T07:14:44;2.60;99.90
16674;DHT22;8450;52.654;10.326;2024-02-28T07:17:09;2.60;99.90
16674;DHT22;8450;52.654;10.326;2024-02-28T07:19:36;2.60;99.90
16674;DHT22;8450;52.654;10.326;2024-02-28T07:22:01;2.60;99.90
16674;DHT22;8450;52.654;10.326;2024-02-28T07:24:28;2.60;99.90
16674;DHT22;8450;52.654;10.326;2024-02-28T07:26:53;2.50;99.90
16674;DHT22;8450;52.654;10.326;2024-02-28T07:29:19;2.60;99.90
16674;DHT22;8450;52.654;10.326;2024-02-28T07:31:44;2.60;99.90
16674;DHT22;8450;52.654;10.326;2024-02-28T07:34:11;2.50;99.90
16674;DHT22;8450;52.654;10.326;2024-02-28T07:36:36;2.50;99.90
16674;DHT22;8450;52.654;10.326;2024-02-28T07:39:03;2.50;99.90
16674;DHT22;8450;52.654;10.326;2024-02-28T07:41:28;2.50;99.90
16674;DHT22;8450;52.654;10.326;2024-02-28T07:43:54;2.50;99.90
16674;DHT22;8450;52.654;10.326;2024-02-28T07:46:20;2.60;99.90
16674;DHT22;8450;52.654;10.326;2024-02-28T07:48:45;2.60;99.90
16674;DHT22;8450;52.654;10.326;2024-02-28T07:51:11;2.70;99.90
16674;DHT22;8450;52.654;10.326;2024-02-28T07:53:37;2.80;99.90
16674;DHT22;8450;52.654;10.326;2024-02-28T07:56:02;2.90;99.90
16674;DHT22;8450;52.654;10.326;2024-02-28T07:58:28;3.00;99.90
16674;DHT22;8450;52.654;10.326;2024-02-28T08:00:53;3.00;99.90
16674;DHT22;8450;52.654;10.326;2024-02-28T08:03:19;3.10;99.90
16674;DHT22;8450;52.654;10.326;2024-02-28T08:05:45;3.10;99.90
16674;DHT22;8450;52.654;10.326;2024-02-28T08:08:11;3.20;99.90
16674;DHT22;8450;52.654;10.326;2024-02-28T08:10:37;3.20;99.90
16674;DHT22;8450;52.654;10.326;2024-02-28T08:13:06;3.20;99.90
16674;DHT22;8450;52.654;10.326;2024-02-28T08:15:33;3.30;99.90
16674;DHT22;8450;52.654;10.326;2024-02-28T08:17:58;3.40;99.90
16674;DHT22;8450;52.654;10.326;2024-02-28T08:20:24;3.40;99.90
16674;DHT22;8450;52.654;10.326;2024-02-28T08:22:50;3.50;99.90
16674;DHT22;8450;52.654;10.326;2024-02-28T08:25:18;3.70;99.90
16674;DHT22;8450;52.654;10.326;2024-02-28T08:27:44;3.70;99.90
16674;DHT22;8450;52.654;10.326;2024-02-28T08:30:09;3.60;99.90
16674;DHT22;8450;52.654;10.326;2024-02-28T08:32:35;3.70;99.90
16674;DHT22;8450;52.654;10.326;2024-02-28T08:35:01;3.80;99.90
16674;DHT22;8450;52.654;10.326;2024-02-28T08:37:26;3.80;99.90
16674;DHT22;8450;52.654;10.326;2024-02-28T08:39:54;4.10;99.90
16674;DHT22;8450;52.654;10.326;2024-02-28T08:42:25;4.20;99.90
16674;DHT22;8450;52.654;10.326;2024-02-28T08:44:51;4.20;99.90
16674;DHT22;8450;52.654;10.326;2024-02-28T08:47:17;4.30;99.90
16674;DHT22;8450;52.654;10.326;2024-02-28T08:49:44;4.30;99.90
16674;DHT22;8450;52.654;10.326;2024-02-28T08:52:09;4.30;99.90
16674;DHT22;8450;52.654;10.326;2024-02-28T08:54:35;4.50;99.90
16674;DHT22;8450;52.654;10.326;2024-02-28T08:57:00;4.40;99.90
16674;DHT22;8450;52.654;10.326;2024-02-28T08:59:26;4.50;99.90
16674;DHT22;8450;52.654;10.326;2024-02-28T09:01:51;4.40;99.90
16674;DHT22;8450;52.654;10.326;2024-02-28T09:04:17;4.40;99.90
16674;DHT22;8450;52.654;10.326;2024-02-28T09:06:42;4.50;99.90
16674;DHT22;8450;52.654;10.326;2024-02-28T09:09:08;4.40;99.90
16674;DHT22;8450;52.654;10.326;2024-02-28T09:11:34;4.50;99.90
16674;DHT22;8450;52.654;10.326;2024-02-28T09:13:59;4.60;99.90
16674;DHT22;8450;52.654;10.326;2024-02-28T09:16:25;4.60;99.90
16674;DHT22;8450;52.654;10.326;2024-02-28T09:18:50;4.80;99.90
16674;DHT22;8450;52.654;10.326;2024-02-28T09:21:16;4.70;99.90
16674;DHT22;8450;52.654;10.326;2024-02-28T09:23:41;4.80;99.90
16674;DHT22;8450;52.654;10.326;2024-02-28T09:26:07;4.90;99.90
16674;DHT22;8450;52.654;10.326;2024-02-28T09:28:33;4.90;99.90
16674;DHT22;8450;52.654;10.326;2024-02-28T09:30:58;4.90;99.90
16674;DHT22;8450;52.654;10.326;2024-02-28T09:33:24;4.90;99.90
16674;DHT22;8450;52.654;10.326;2024-02-28T09:35:50;4.90;99.90
16674;DHT22;8450;52.654;10.326;2024-02-28T09:38:15;4.90;99.90
16674;DHT22;8450;52.654;10.326;2024-02-28T09:40:41;5.00;99.90
16674;DHT22;8450;52.654;10.326;2024-02-28T09:43:13;4.90;99.90
16674;DHT22;8450;52.654;10.326;2024-02-28T09:45:40;5.00;99.90
16674;DHT22;8450;52.654;10.326;2024-02-28T09:48:07;5.00;99.90
16674;DHT22;8450;52.654;10.326;2024-02-28T09:50:32;4.90;99.90
16674;DHT22;8450;52.654;10.326;2024-02-28T09:52:58;5.00;99.90
16674;DHT22;8450;52.654;10.326;2024-02-28T09:55:24;5.00;99.90
16674;DHT22;8450;52.654;10.326;2024-02-28T09:57:50;5.00;99.90
16674;DHT22;8450;52.654;10.326;2024-02-28T10:00:19;5.30;99.90
16674;DHT22;8450;52.654;10.326;2024-02-28T10:02:47;5.60;99.90
16674;DHT22;8450;52.654;10.326;2024-02-28T10:05:17;5.70;99.90
16674;DHT22;8450;52.654;10.326;2024-02-28T10:07:49;5.80;99.90
16674;DHT22;8450;52.654;10.326;2024-02-28T10:10:14;5.80;99.90
16674;DHT22;8450;52.654;10.326;2024-02-28T10:12:42;5.70;99.90
16674;DHT22;8450;52.654;10.326;2024-02-28T10:15:09;6.00;99.90
16674;DHT22;8450;52.654;10.326;2024-02-28T10:17:35;6.40;99.90
16674;DHT22;8450;52.654;10.326;2024-02-28T10:20:00;6.10;99.90
16674;DHT22;8450;52.654;10.326;2024-02-28T10:22:26;6.10;99.90
16674;DHT22;8450;52.654;10.326;2024-02-28T10:24:58;6.40;99.90
16674;DHT22;8450;52.654;10.326;2024-02-28T10:27:24;6.40;99.90
16674;DHT22;8450;52.654;10.326;2024-02-28T10:29:50;6.30;99.90
16674;DHT22;8450;52.654;10.326;2024-02-28T10:32:15;6.40;99.90
16674;DHT22;8450;52.654;10.326;2024-02-28T10:34:41;6.30;99.90
16674;DHT22;8450;52.654;10.326;2024-02-28T10:37:07;6.30;99.90
16674;DHT22;8450;52.654;10.326;2024-02-28T10:39:34;6.40;99.90
16674;DHT22;8450;52.654;10.326;2024-02-28T10:42:01;6.10;99.90
16674;DHT22;8450;52.654;10.326;2024-02-28T10:44:28;6.30;99.90
16674;DHT22;8450;52.654;10.326;2024-02-28T10:46:56;6.30;99.90
16674;DHT22;8450;52.654;10.326;2024-02-28T10:49:22;6.40;99.90
16674;DHT22;8450;52.654;10.326;2024-02-28T10:51:49;6.50;99.90
16674;DHT22;8450;52.654;10.326;2024-02-28T10:54:15;6.60;99.90
16674;DHT22;8450;52.654;10.326;2024-02-28T10:56:42;6.30;99.90
16674;DHT22;8450;52.654;10.326;2024-02-28T10:59:09;6.20;99.90
16674;DHT22;8450;52.654;10.326;2024-02-28T11:01:45;6.30;99.90
16674;DHT22;8450;52.654;10.326;2024-02-28T11:04:11;6.50;99.90
16674;DHT22;8450;52.654;10.326;2024-02-28T11:06:48;6.60;99.90
16674;DHT22;8450;52.654;10.326;2024-02-28T11:09:19;6.60;99.90
16674;DHT22;8450;52.654;10.326;2024-02-28T11:11:48;6.80;99.90
16674;DHT22;8450;52.654;10.326;2024-02-28T11:14:15;6.80;99.90
16674;DHT22;8450;52.654;10.326;2024-02-28T11:16:41;6.90;99.90
16674;DHT22;8450;52.654;10.326;2024-02-28T11:19:19;6.80;99.90
16674;DHT22;8450;52.654;10.326;2024-02-28T11:21:54;6.70;99.90
16674;DHT22;8450;52.654;10.326;2024-02-28T11:24:32;6.80;99.90
16674;DHT22;8450;52.654;10.326;2024-02-28T11:26:58;7.20;99.90
16674;DHT22;8450;52.654;10.326;2024-02-28T11:29:28;7.40;99.90
16674;DHT22;8450;52.654;10.326;2024-02-28T11:31:54;7.50;99.90
16674;DHT22;8450;52.654;10.326;2024-02-28T11:34:20;7.50;99.90
16674;DHT22;8450;52.654;10.326;2024-02-28T11:36:50;7.70;99.90
16674;DHT22;8450;52.654;10.326;2024-02-28T11:39:16;7.80;99.90
16674;DHT22;8450;52.654;10.326;2024-02-28T11:41:43;7.80;99.90
16674;DHT22;8450;52.654;10.326;2024-02-28T11:44:13;8.00;99.90
16674;DHT22;8450;52.654;10.326;2024-02-28T11:46:46;8.00;99.90
16674;DHT22;8450;52.654;10.326;2024-02-28T11:49:15;8.00;99.90
16674;DHT22;8450;52.654;10.326;2024-02-28T11:51:45;8.20;99.90
16674;DHT22;8450;52.654;10.326;2024-02-28T11:54:11;8.30;99.90
16674;DHT22;8450;52.654;10.326;2024-02-28T11:56:38;8.00;99.90
16674;DHT22;8450;52.654;10.326;2024-02-28T11:59:06;7.40;99.90
16674;DHT22;8450;52.654;10.326;2024-02-28T12:01:36;7.80;99.90
16674;DHT22;8450;52.654;10.326;2024-02-28T12:04:06;8.20;99.90
16674;DHT22;8450;52.654;10.326;2024-02-28T12:06:36;8.50;99.90
16674;DHT22;8450;52.654;10.326;2024-02-28T12:09:03;8.60;99.90
16674;DHT22;8450;52.654;10.326;2024-02-28T12:11:30;8.70;99.90
16674;DHT22;8450;52.654;10.326;2024-02-28T12:13:56;9.10;99.90
16674;DHT22;8450;52.654;10.326;2024-02-28T12:16:24;9.30;99.90
16674;DHT22;8450;52.654;10.326;2024-02-28T12:18:49;9.10;99.90
16674;DHT22;8450;52.654;10.326;2024-02-28T12:21:15;8.60;99.90
16674;DHT22;8450;52.654;10.326;2024-02-28T12:23:40;8.40;99.90
16674;DHT22;8450;52.654;10.326;2024-02-28T12:26:06;8.70;99.90
16674;DHT22;8450;52.654;10.326;2024-02-28T12:28:31;8.30;99.90
16674;DHT22;8450;52.654;10.326;2024-02-28T12:30:57;8.30;99.90
16674;DHT22;8450;52.654;10.326;2024-02-28T12:33:22;8.10;99.90
16674;DHT22;8450;52.654;10.326;2024-02-28T12:35:48;8.60;99.90
16674;DHT22;8450;52.654;10.326;2024-02-28T12:38:13;8.90;99.90
16674;DHT22;8450;52.654;10.326;2024-02-28T12:40:41;8.90;99.90
16674;DHT22;8450;52.654;10.326;2024-02-28T12:43:07;9.10;99.90
16674;DHT22;8450;52.654;10.326;2024-02-28T12:45:33;9.40;99.90
16674;DHT22;8450;52.654;10.326;2024-02-28T12:47:58;9.50;99.90
16674;DHT22;8450;52.654;10.326;2024-02-28T12:50:26;9.70;99.90
16674;DHT22;8450;52.654;10.326;2024-02-28T12:52:52;8.90;99.90
16674;DHT22;8450;52.654;10.326;2024-02-28T12:55:19;9.30;99.90
16674;DHT22;8450;52.654;10.326;2024-02-28T12:57:46;9.70;99.90
16674;DHT22;8450;52.654;10.326;2024-02-28T13:00:12;9.70;99.90
16674;DHT22;8450;52.654;10.326;2024-02-28T13:02:38;9.90;99.90
16674;DHT22;8450;52.654;10.326;2024-02-28T13:05:04;10.10;99.90
16674;DHT22;8450;52.654;10.326;2024-02-28T13:07:30;9.80;99.90
16674;DHT22;8450;52.654;10.326;2024-02-28T13:09:56;9.90;99.90
16674;DHT22;8450;52.654;10.326;2024-02-28T13:12:21;10.10;99.90
16674;DHT22;8450;52.654;10.326;2024-02-28T13:14:47;10.10;99.90
16674;DHT22;8450;52.654;10.326;2024-02-28T13:17:13;10.40;99.90
16674;DHT22;8450;52.654;10.326;2024-02-28T13:19:40;10.50;99.90
16674;DHT22;8450;52.654;10.326;2024-02-28T13:22:05;10.70;99.90
16674;DHT22;8450;52.654;10.326;2024-02-28T13:24:31;10.60;99.90
16674;DHT22;8450;52.654;10.326;2024-02-28T13:26:57;10.40;99.90
16674;DHT22;8450;52.654;10.326;2024-02-28T13:29:23;9.90;99.90
16674;DHT22;8450;52.654;10.326;2024-02-28T13:31:48;9.50;99.90
16674;DHT22;8450;52.654;10.326;2024-02-28T13:34:14;9.80;99.90
16674;DHT22;8450;52.654;10.326;2024-02-28T13:36:40;9.30;99.90
16674;DHT22;8450;52.654;10.326;2024-02-28T13:39:09;9.20;99.90
16674;DHT22;8450;52.654;10.326;2024-02-28T13:41:34;9.30;99.90
16674;DHT22;8450;52.654;10.326;2024-02-28T13:44:00;8.90;99.90
16674;DHT22;8450;52.654;10.326;2024-02-28T13:46:25;9.10;99.90
16674;DHT22;8450;52.654;10.326;2024-02-28T13:48:51;9.60;99.90
16674;DHT22;8450;52.654;10.326;2024-02-28T13:54:06;10.30;99.90
16674;DHT22;8450;52.654;10.326;2024-02-28T13:56:31;10.50;99.90
16674;DHT22;8450;52.654;10.326;2024-02-28T13:58:57;10.30;99.90
16674;DHT22;8450;52.654;10.326;2024-02-28T14:01:23;9.90;99.90
16674;DHT22;8450;52.654;10.326;2024-02-28T14:03:49;9.60;99.90
16674;DHT22;8450;52.654;10.326;2024-02-28T14:06:14;9.90;99.90
16674;DHT22;8450;52.654;10.326;2024-02-28T14:08:40;10.00;99.90
16674;DHT22;8450;52.654;10.326;2024-02-28T14:11:05;10.40;99.90
16674;DHT22;8450;52.654;10.326;2024-02-28T14:13:31;10.50;99.90
16674;DHT22;8450;52.654;10.326;2024-02-28T14:15:57;10.50;99.90
16674;DHT22;8450;52.654;10.326;2024-02-28T14:18:22;10.40;99.90
16674;DHT22;8450;52.654;10.326;2024-02-28T14:20:48;10.30;99.90
16674;DHT22;8450;52.654;10.326;2024-02-28T14:23:13;9.60;99.90
16674;DHT22;8450;52.654;10.326;2024-02-28T14:25:39;9.10;99.90
16674;DHT22;8450;52.654;10.326;2024-02-28T14:28:05;9.20;99.90
16674;DHT22;8450;52.654;10.326;2024-02-28T14:30:31;9.00;99.90
16674;DHT22;8450;52.654;10.326;2024-02-28T14:32:56;9.40;99.90
16674;DHT22;8450;52.654;10.326;2024-02-28T14:35:22;9.20;99.90
16674;DHT22;8450;52.654;10.326;2024-02-28T14:37:48;9.20;99.90
16674;DHT22;8450;52.654;10.326;2024-02-28T14:40:13;9.10;99.90
16674;DHT22;8450;52.654;10.326;2024-02-28T14:42:40;9.30;99.90
16674;DHT22;8450;52.654;10.326;2024-02-28T14:45:07;9.20;99.90
16674;DHT22;8450;52.654;10.326;2024-02-28T14:47:34;9.20;99.90
16674;DHT22;8450;52.654;10.326;2024-02-28T14:50:02;9.40;99.90
16674;DHT22;8450;52.654;10.326;2024-02-28T14:52:28;9.30;99.90
16674;DHT22;8450;52.654;10.326;2024-02-28T14:54:53;9.30;99.90
16674;DHT22;8450;52.654;10.326;2024-02-28T14:57:19;9.30;99.90
16674;DHT22;8450;52.654;10.326;2024-02-28T14:59:45;9.20;99.90
16674;DHT22;8450;52.654;10.326;2024-02-28T15:02:11;9.00;99.90
16674;DHT22;8450;52.654;10.326;2024-02-28T15:04:37;8.90;99.90
16674;DHT22;8450;52.654;10.326;2024-02-28T15:07:03;8.80;99.90
16674;DHT22;8450;52.654;10.326;2024-02-28T15:09:29;8.80;99.90
16674;DHT22;8450;52.654;10.326;2024-02-28T15:11:55;8.80;99.90
16674;DHT22;8450;52.654;10.326;2024-02-28T15:14:22;8.80;99.90
16674;DHT22;8450;52.654;10.326;2024-02-28T15:16:48;8.70;99.90
16674;DHT22;8450;52.654;10.326;2024-02-28T15:19:14;8.70;99.90
16674;DHT22;8450;52.654;10.326;2024-02-28T15:21:40;8.50;99.90
16674;DHT22;8450;52.654;10.326;2024-02-28T15:24:06;8.60;99.90
16674;DHT22;8450;52.654;10.326;2024-02-28T15:26:31;8.60;99.90
16674;DHT22;8450;52.654;10.326;2024-02-28T15:28:57;8.50;99.90
16674;DHT22;8450;52.654;10.326;2024-02-28T15:31:22;8.50;99.90
16674;DHT22;8450;52.654;10.326;2024-02-28T15:33:48;8.30;99.90
16674;DHT22;8450;52.654;10.326;2024-02-28T15:36:14;8.20;99.90
16674;DHT22;8450;52.654;10.326;2024-02-28T15:38:40;8.20;99.90
16674;DHT22;8450;52.654;10.326;2024-02-28T15:41:05;8.20;99.90
16674;DHT22;8450;52.654;10.326;2024-02-28T15:43:31;8.30;99.90
16674;DHT22;8450;52.654;10.326;2024-02-28T15:45:57;8.10;99.90
16674;DHT22;8450;52.654;10.326;2024-02-28T15:48:22;8.10;99.90
16674;DHT22;8450;52.654;10.326;2024-02-28T15:50:48;8.10;99.90